Time;durP1;ratioP1;P1;durP2;ratioP2;P2;SDS_P1;SDS_P2;PMS_P1;PMS_P2;Temp;Humidity;BMP_temperature;BMP_pressure;BME280_temperature;BME280_humidity;BME280_pressure;Samples;Min_cycle;Max_cycle;Signal;HPM_P1;HPM_P2
2023/04/22 00:00:34;;;;;;;56.88;10.70;;;14.10;90.10;;;;;;5046233;28;20120;-56
2023/04/22 00:03:02;;;;;;;47.40;9.93;;;14.10;90.10;;;;;;5046292;28;20182;-56
2023/04/22 00:05:27;;;;;;;47.03;9.15;;;14.10;90.10;;;;;;5046516;28;20022;-56
2023/04/22 00:07:54;;;;;;;43.45;9.55;;;14.00;90.20;;;;;;5046192;28;20025;-56
2023/04/22 00:10:20;;;;;;;46.92;9.15;;;14.00;90.10;;;;;;5044703;28;20139;-56
2023/04/22 00:12:46;;;;;;;46.13;9.70;;;14.00;90.20;;;;;;5046281;28;20096;-56
2023/04/22 00:15:11;;;;;;;45.15;9.43;;;14.00;90.20;;;;;;5044699;28;20033;-56
2023/04/22 00:17:37;;;;;;;39.63;9.82;;;14.00;90.50;;;;;;5046208;28;20029;-56
2023/04/22 00:20:03;;;;;;;37.22;9.43;;;14.00;90.20;;;;;;5046108;28;20029;-56
2023/04/22 00:22:28;;;;;;;42.50;9.52;;;13.90;90.20;;;;;;5045920;28;20025;-56
2023/04/22 00:24:54;;;;;;;41.90;8.70;;;13.90;90.20;;;;;;5045915;28;20030;-56
2023/04/22 00:27:19;;;;;;;40.05;8.45;;;13.90;90.60;;;;;;5045957;28;20040;-56
2023/04/22 00:29:45;;;;;;;32.33;8.55;;;13.90;90.30;;;;;;5028156;28;20083;-56
2023/04/22 00:32:11;;;;;;;32.95;8.73;;;13.80;90.30;;;;;;5044235;28;20038;-56
2023/04/22 00:34:37;;;;;;;32.17;8.25;;;13.80;90.60;;;;;;5045756;28;20037;-56
2023/04/22 00:37:03;;;;;;;32.85;8.98;;;13.80;90.30;;;;;;5045573;28;20161;-56
2023/04/22 00:39:28;;;;;;;33.83;7.90;;;13.80;90.30;;;;;;5044079;28;20120;-57
2023/04/22 00:41:54;;;;;;;36.33;8.05;;;13.80;90.40;;;;;;5044089;28;20025;-56
2023/04/22 00:44:20;;;;;;;30.65;8.05;;;13.80;90.30;;;;;;5045576;28;20080;-56
2023/04/22 00:46:45;;;;;;;39.38;7.75;;;13.80;90.60;;;;;;5043677;28;20037;-56
2023/04/22 00:49:11;;;;;;;29.55;7.85;;;13.80;90.40;;;;;;5045528;28;20397;-55
2023/04/22 00:51:36;;;;;;;33.42;8.27;;;13.80;90.40;;;;;;5043917;28;20115;-56
2023/04/22 00:54:03;;;;;;;27.98;7.88;;;13.80;90.50;;;;;;5045160;28;20048;-56
2023/04/22 00:56:29;;;;;;;32.17;8.48;;;13.70;90.50;;;;;;5045381;28;20041;-56
2023/04/22 00:58:54;;;;;;;33.58;8.30;;;13.60;90.50;;;;;;5045029;28;20029;-56
2023/04/22 01:01:21;;;;;;;29.83;7.95;;;13.60;90.50;;;;;;5043899;28;20048;-56
2023/04/22 01:03:47;;;;;;;39.33;8.00;;;13.70;90.60;;;;;;5045403;28;20040;-56
2023/04/22 01:06:12;;;;;;;25.67;7.68;;;13.60;90.50;;;;;;5027016;28;20113;-57
2023/04/22 01:08:38;;;;;;;27.42;7.80;;;13.60;90.50;;;;;;5043667;28;20159;-56
2023/04/22 01:11:04;;;;;;;36.10;7.90;;;13.50;90.50;;;;;;5043731;28;20026;-56
2023/04/22 01:13:30;;;;;;;27.23;7.72;;;13.50;90.60;;;;;;5045172;28;20025;-56
2023/04/22 01:15:55;;;;;;;29.38;6.90;;;13.50;90.60;;;;;;5044874;28;20075;-57
2023/04/22 01:18:21;;;;;;;27.67;7.47;;;13.60;90.70;;;;;;5043476;28;20148;-56
2023/04/22 01:20:46;;;;;;;27.40;7.55;;;13.50;90.60;;;;;;5044862;28;20377;-57
2023/04/22 01:23:17;;;;;;;37.92;7.60;;;13.40;90.60;;;;;;5045136;28;20068;-56
2023/04/22 01:25:43;;;;;;;31.23;7.15;;;13.40;90.60;;;;;;5043579;28;20013;-56
2023/04/22 01:28:08;;;;;;;27.92;6.93;;;13.40;90.60;;;;;;5043492;28;20033;-56
2023/04/22 01:30:34;;;;;;;28.85;7.18;;;13.40;90.60;;;;;;5044788;28;20025;-56
2023/04/22 01:33:00;;;;;;;23.48;7.13;;;13.40;90.70;;;;;;5044838;28;20041;-56
2023/04/22 01:35:25;;;;;;;28.55;7.40;;;13.30;90.60;;;;;;5043439;28;20025;-56
2023/04/22 01:37:51;;;;;;;23.75;7.03;;;13.30;91.00;;;;;;5044839;28;20029;-56
2023/04/22 01:40:18;;;;;;;25.83;7.30;;;13.30;90.80;;;;;;5044569;28;20039;-56
2023/04/22 01:42:44;;;;;;;24.33;7.38;;;13.20;90.80;;;;;;5043527;28;20033;-56
2023/04/22 01:45:12;;;;;;;19.45;6.78;;;13.30;90.90;;;;;;5044618;28;20465;-56
2023/04/22 01:47:37;;;;;;;19.73;7.38;;;13.50;91.00;;;;;;5044704;28;20030;-56
2023/04/22 01:50:03;;;;;;;22.60;7.13;;;13.40;91.40;;;;;;5043136;28;20037;-56
2023/04/22 01:52:29;;;;;;;25.08;7.05;;;13.20;91.00;;;;;;5044634;28;20188;-56
2023/04/22 01:54:55;;;;;;;23.52;7.25;;;13.20;91.10;;;;;;5044384;28;20183;-56
2023/04/22 01:57:20;;;;;;;22.52;6.65;;;13.30;91.00;;;;;;5044387;28;20508;-57
2023/04/22 01:59:46;;;;;;;28.65;7.43;;;13.20;91.00;;;;;;5047560;28;20033;-56
2023/04/22 02:02:12;;;;;;;19.98;6.22;;;13.20;91.00;;;;;;5048641;28;20083;-56
2023/04/22 02:04:38;;;;;;;19.52;7.10;;;13.30;91.00;;;;;;5048540;28;20034;-56
2023/04/22 02:07:03;;;;;;;22.65;6.57;;;13.20;91.00;;;;;;5047130;28;20518;-56
2023/04/22 02:09:29;;;;;;;18.13;6.93;;;13.20;91.10;;;;;;5048556;28;20037;-56
2023/04/22 02:11:54;;;;;;;26.90;7.70;;;13.20;91.10;;;;;;5048541;28;20025;-56
2023/04/22 02:14:20;;;;;;;22.02;7.63;;;13.30;91.10;;;;;;5048385;28;20034;-57
2023/04/22 02:16:46;;;;;;;25.38;8.27;;;13.20;91.20;;;;;;5048421;28;20041;-56
2023/04/22 02:19:12;;;;;;;18.55;7.40;;;13.10;91.10;;;;;;5048036;28;20112;-56
2023/04/22 02:21:38;;;;;;;20.95;7.65;;;13.10;91.20;;;;;;5048230;28;20041;-56
2023/04/22 02:24:05;;;;;;;17.58;7.43;;;13.10;91.20;;;;;;5046958;28;20029;-56
2023/04/22 02:26:30;;;;;;;21.75;7.32;;;13.10;91.20;;;;;;5046845;28;20037;-56
2023/04/22 02:28:56;;;;;;;15.60;6.95;;;13.20;91.30;;;;;;5048142;28;20044;-56
2023/04/22 02:31:21;;;;;;;20.67;7.40;;;13.20;91.30;;;;;;5047845;28;20033;-56
2023/04/22 02:33:47;;;;;;;21.08;7.47;;;13.20;91.30;;;;;;5046747;28;20039;-56
2023/04/22 02:36:13;;;;;;;16.27;7.18;;;13.00;91.30;;;;;;5048000;28;20048;-56
2023/04/22 02:38:39;;;;;;;14.48;6.90;;;13.10;91.30;;;;;;5047630;28;20440;-56
2023/04/22 02:41:04;;;;;;;18.42;6.82;;;13.10;91.30;;;;;;5047490;28;20029;-56
2023/04/22 02:43:30;;;;;;;14.05;6.75;;;13.00;91.30;;;;;;5049296;28;20021;-56
2023/04/22 02:45:56;;;;;;;16.50;6.72;;;13.10;91.30;;;;;;5047738;28;20025;-56
2023/04/22 02:48:21;;;;;;;17.67;6.43;;;12.90;91.30;;;;;;5048014;28;20021;-57
2023/04/22 02:50:47;;;;;;;17.30;6.43;;;13.10;91.40;;;;;;5047862;28;20032;-56
2023/04/22 02:53:12;;;;;;;20.02;6.43;;;13.00;91.30;;;;;;5047219;28;20034;-56
2023/04/22 02:55:39;;;;;;;13.98;6.75;;;13.10;91.40;;;;;;5045557;28;20053;-56
2023/04/22 02:58:05;;;;;;;12.98;6.60;;;13.00;91.30;;;;;;5046330;28;20032;-56
2023/04/22 03:00:31;;;;;;;15.57;6.40;;;13.10;91.40;;;;;;5045034;28;20038;-56
2023/04/22 03:02:57;;;;;;;14.57;6.47;;;12.90;91.30;;;;;;5046128;28;20034;-56
2023/04/22 03:05:22;;;;;;;14.48;6.45;;;13.10;91.40;;;;;;5046285;28;20042;-56
2023/04/22 03:07:48;;;;;;;14.98;6.32;;;12.80;91.30;;;;;;5046295;28;20018;-56
2023/04/22 03:10:14;;;;;;;12.10;6.03;;;12.80;91.30;;;;;;5044501;28;20037;-56
2023/04/22 03:12:40;;;;;;;13.57;5.70;;;12.80;91.30;;;;;;5046225;28;20033;-56
2023/04/22 03:15:06;;;;;;;17.77;6.18;;;12.80;91.40;;;;;;5046324;28;20033;-56
2023/04/22 03:17:31;;;;;;;16.55;6.85;;;12.70;91.40;;;;;;5046140;28;20033;-56
2023/04/22 03:19:58;;;;;;;18.05;7.63;;;12.70;91.40;;;;;;5046009;28;20027;-56
2023/04/22 03:22:24;;;;;;;15.05;7.10;;;12.90;91.50;;;;;;5044675;28;20033;-56
2023/04/22 03:24:49;;;;;;;16.80;9.23;;;12.70;91.40;;;;;;5045993;28;20021;-57
2023/04/22 03:27:15;;;;;;;38.60;10.15;;;12.70;91.40;;;;;;5044649;28;20030;-56
2023/04/22 03:29:40;;;;;;;33.05;9.02;;;12.70;91.70;;;;;;5044534;28;20036;-56
2023/04/22 03:32:06;;;;;;;17.80;8.25;;;12.70;91.50;;;;;;5045633;28;20041;-57
2023/04/22 03:34:32;;;;;;;19.50;8.55;;;12.70;91.50;;;;;;5045950;28;20032;-56
2023/04/22 03:36:57;;;;;;;22.17;9.02;;;12.70;91.50;;;;;;5044532;28;20079;-56
2023/04/22 03:39:23;;;;;;;28.13;8.68;;;12.90;91.60;;;;;;5044008;28;20037;-56
2023/04/22 03:41:49;;;;;;;32.53;9.43;;;12.60;91.50;;;;;;5045677;28;20142;-56
2023/04/22 03:44:14;;;;;;;24.63;9.18;;;12.60;91.60;;;;;;5045571;28;20087;-56
2023/04/22 03:46:40;;;;;;;28.83;9.75;;;12.60;91.60;;;;;;5045539;28;20030;-56
2023/04/22 03:49:05;;;;;;;27.63;9.63;;;12.60;91.60;;;;;;5045592;28;20128;-56
2023/04/22 03:51:31;;;;;;;29.60;10.23;;;12.50;91.60;;;;;;5045484;28;20048;-56
2023/04/22 03:53:56;;;;;;;29.05;9.00;;;12.50;91.60;;;;;;5007471;28;1100506;-56
2023/04/22 03:56:23;;;;;;;35.67;10.38;;;12.50;91.60;;;;;;5046424;28;20130;-56
2023/04/22 03:58:49;;;;;;;30.50;9.95;;;12.40;91.60;;;;;;5046546;28;20035;-56
2023/04/22 04:01:15;;;;;;;42.60;9.77;;;12.40;91.60;;;;;;5044938;28;20090;-56
2023/04/22 04:03:40;;;;;;;25.08;10.38;;;12.50;91.60;;;;;;5046452;28;20038;-56
2023/04/22 04:06:06;;;;;;;37.03;9.98;;;12.60;91.60;;;;;;5046412;28;20100;-56
2023/04/22 04:08:31;;;;;;;25.58;9.63;;;12.40;91.60;;;;;;5046149;28;20025;-56
2023/04/22 04:10:57;;;;;;;25.80;8.63;;;12.40;91.70;;;;;;5046222;28;20031;-56
2023/04/22 04:13:23;;;;;;;27.92;9.32;;;12.60;91.80;;;;;;5046194;28;20339;-56
2023/04/22 04:15:48;;;;;;;26.02;9.95;;;12.40;91.70;;;;;;5045822;28;20053;-56
2023/04/22 04:18:14;;;;;;;27.80;8.63;;;12.40;91.60;;;;;;5045883;28;20063;-56
2023/04/22 04:20:39;;;;;;;34.75;9.13;;;12.40;91.60;;;;;;5045439;28;20026;-56
2023/04/22 04:23:05;;;;;;;25.88;8.55;;;12.30;91.60;;;;;;5045693;28;20022;-56
2023/04/22 04:25:36;;;;;;;21.55;8.77;;;12.40;91.70;;;;;;5044486;28;20021;-57
2023/04/22 04:28:08;;;;;;;18.05;8.73;;;12.40;91.70;;;;;;5045983;28;20037;-56
2023/04/22 04:30:34;;;;;;;30.02;11.18;;;12.20;91.70;;;;;;5045867;28;20124;-56
2023/04/22 04:33:05;;;;;;;19.30;9.77;;;12.40;91.70;;;;;;5046220;28;20028;-56
2023/04/22 04:35:34;;;;;;;30.02;9.45;;;12.20;91.70;;;;;;5045830;28;20077;-56
2023/04/22 04:38:01;;;;;;;18.65;9.85;;;12.20;91.60;;;;;;5045670;28;20075;-56
2023/04/22 04:40:28;;;;;;;17.33;9.85;;;12.20;91.60;;;;;;5044421;28;20041;-56
2023/04/22 04:42:56;;;;;;;26.85;10.20;;;12.20;91.60;;;;;;5045598;28;20052;-56
2023/04/22 04:45:22;;;;;;;19.25;8.88;;;12.20;91.60;;;;;;5045604;28;20033;-56
2023/04/22 04:47:51;;;;;;;25.00;9.43;;;12.20;91.70;;;;;;5045613;28;20026;-56
2023/04/22 04:50:17;;;;;;;19.83;9.77;;;12.10;91.70;;;;;;5045477;28;20064;-56
2023/04/22 04:52:43;;;;;;;28.15;10.10;;;12.10;92.00;;;;;;5045638;28;20039;-56
2023/04/22 04:55:08;;;;;;;22.95;9.43;;;12.00;91.70;;;;;;5045226;28;20033;-56
2023/04/22 04:57:34;;;;;;;18.95;8.77;;;12.20;91.80;;;;;;5045474;28;20045;-56
2023/04/22 05:00:01;;;;;;;14.07;8.52;;;12.20;91.80;;;;;;5045185;28;20025;-56
2023/04/22 05:02:27;;;;;;;15.32;8.40;;;12.00;91.80;;;;;;5043926;28;20037;-56
2023/04/22 05:04:52;;;;;;;18.02;9.13;;;12.00;91.80;;;;;;5045044;28;20021;-56
2023/04/22 05:07:18;;;;;;;16.02;8.20;;;12.00;91.80;;;;;;5045171;28;20059;-56
2023/04/22 05:09:44;;;;;;;15.02;8.50;;;12.10;91.80;;;;;;5043703;28;20041;-56
2023/04/22 05:12:10;;;;;;;16.40;8.32;;;12.10;91.80;;;;;;5043748;28;20053;-56
2023/04/22 05:14:35;;;;;;;19.70;9.15;;;12.20;91.80;;;;;;5045131;28;20029;-56
2023/04/22 05:17:01;;;;;;;14.45;8.68;;;12.00;91.80;;;;;;5043553;28;20035;-56
2023/04/22 05:19:27;;;;;;;15.20;9.20;;;12.10;91.90;;;;;;5045677;28;20036;-57
2023/04/22 05:21:53;;;;;;;21.30;8.10;;;11.90;91.90;;;;;;5045537;28;20029;-56
2023/04/22 05:24:18;;;;;;;20.83;8.88;;;12.00;91.90;;;;;;5044809;28;20049;-56
2023/04/22 05:26:44;;;;;;;24.42;8.57;;;12.10;91.90;;;;;;5044901;28;20159;-56
2023/04/22 05:29:10;;;;;;;15.45;7.90;;;12.20;91.90;;;;;;5044854;28;20040;-56
2023/04/22 05:31:35;;;;;;;16.70;8.50;;;11.90;91.90;;;;;;5044988;28;20425;-56
2023/04/22 05:34:01;;;;;;;16.90;8.00;;;11.90;91.90;;;;;;5044796;28;20093;-56
2023/04/22 05:36:26;;;;;;;14.77;7.95;;;12.10;92.00;;;;;;5044783;28;20040;-56
2023/04/22 05:38:52;;;;;;;17.48;7.68;;;11.90;92.00;;;;;;5044768;28;20111;-56
2023/04/22 05:41:18;;;;;;;16.30;8.55;;;11.90;92.00;;;;;;5044799;28;20036;-56
2023/04/22 05:43:43;;;;;;;19.98;8.38;;;11.90;91.90;;;;;;5044764;28;20026;-56
2023/04/22 05:46:09;;;;;;;14.55;8.25;;;11.80;91.90;;;;;;5043230;28;20490;-56
2023/04/22 05:48:34;;;;;;;14.95;8.35;;;11.80;91.90;;;;;;5043375;28;20086;-56
2023/04/22 05:51:00;;;;;;;18.17;8.75;;;11.90;91.90;;;;;;5044748;28;20029;-56
2023/04/22 05:53:25;;;;;;;18.48;8.70;;;11.80;91.90;;;;;;5043144;28;20409;-57
2023/04/22 05:55:52;;;;;;;15.52;8.48;;;11.80;91.80;;;;;;5044471;28;20034;-56
2023/04/22 05:58:17;;;;;;;20.00;7.97;;;11.90;91.90;;;;;;5043198;28;20037;-56
2023/04/22 06:00:43;;;;;;;15.45;7.78;;;11.90;91.90;;;;;;5044502;28;20034;-56
2023/04/22 06:03:09;;;;;;;14.85;8.15;;;11.80;91.90;;;;;;5044593;28;20017;-56
2023/04/22 06:05:34;;;;;;;17.30;7.68;;;11.80;91.90;;;;;;5044338;28;20025;-56
2023/04/22 06:08:00;;;;;;;21.52;8.07;;;11.80;91.90;;;;;;5044645;28;20056;-56
2023/04/22 06:10:26;;;;;;;11.68;7.53;;;11.80;91.80;;;;;;5044471;28;20033;-56
2023/04/22 06:12:52;;;;;;;13.65;7.72;;;11.80;91.80;;;;;;5044531;28;20029;-57
2023/04/22 06:15:17;;;;;;;14.23;8.20;;;11.80;91.80;;;;;;5044159;28;20069;-56
2023/04/22 06:17:44;;;;;;;18.23;7.97;;;11.90;91.80;;;;;;5044481;28;20105;-56
2023/04/22 06:20:10;;;;;;;14.18;7.63;;;11.90;91.80;;;;;;5044276;28;20069;-56
2023/04/22 06:22:36;;;;;;;11.80;7.60;;;11.80;91.80;;;;;;5044210;28;20468;-56
2023/04/22 06:25:02;;;;;;;13.45;7.47;;;11.80;91.80;;;;;;5044451;28;20025;-56
2023/04/22 06:27:28;;;;;;;13.07;8.00;;;11.70;91.80;;;;;;5044433;28;20041;-56
2023/04/22 06:29:53;;;;;;;13.25;7.68;;;11.80;91.80;;;;;;5044235;28;20026;-56
2023/04/22 06:32:19;;;;;;;13.13;7.78;;;11.80;91.80;;;;;;5044268;28;20047;-56
2023/04/22 06:34:44;;;;;;;14.13;7.60;;;11.80;91.80;;;;;;5044067;28;20041;-56
2023/04/22 06:37:10;;;;;;;15.15;7.45;;;11.70;91.80;;;;;;5044445;28;20137;-56
2023/04/22 06:39:35;;;;;;;22.02;7.85;;;11.80;91.70;;;;;;5044045;28;20263;-56
2023/04/22 06:42:01;;;;;;;11.80;7.22;;;12.00;91.80;;;;;;5044206;28;20132;-56
2023/04/22 06:44:29;;;;;;;11.48;7.18;;;11.80;91.70;;;;;;5045056;28;20021;-56
2023/04/22 06:46:55;;;;;;;15.50;8.05;;;11.80;91.70;;;;;;5046851;28;20100;-56
2023/04/22 06:49:21;;;;;;;13.00;8.05;;;11.80;91.70;;;;;;5047698;28;20021;-57
2023/04/22 06:51:46;;;;;;;13.98;7.82;;;11.80;91.70;;;;;;5046476;28;20123;-56
2023/04/22 06:54:12;;;;;;;16.30;7.45;;;11.70;91.60;;;;;;5047420;28;20033;-56
2023/04/22 06:56:37;;;;;;;13.13;7.53;;;11.80;91.70;;;;;;5047454;28;20478;-55
2023/04/22 06:59:03;;;;;;;13.32;7.45;;;11.80;91.90;;;;;;5047550;28;20029;-56
2023/04/22 07:01:29;;;;;;;12.68;7.22;;;11.80;91.60;;;;;;5047218;28;20038;-56
2023/04/22 07:03:54;;;;;;;15.50;7.53;;;11.90;91.60;;;;;;5047987;28;20026;-56
2023/04/22 07:06:20;;;;;;;17.08;8.15;;;11.90;91.60;;;;;;5047350;28;20049;-56
2023/04/22 07:08:45;;;;;;;21.88;7.93;;;11.80;91.60;;;;;;5046177;28;20358;-56
2023/04/22 07:11:11;;;;;;;18.70;7.78;;;11.80;91.60;;;;;;5045977;28;20048;-56
2023/04/22 07:13:36;;;;;;;15.63;7.90;;;11.80;91.60;;;;;;5045905;28;20188;-56
2023/04/22 07:16:02;;;;;;;15.32;7.90;;;11.90;91.60;;;;;;5047449;28;20033;-56
2023/04/22 07:18:28;;;;;;;18.98;8.45;;;11.80;91.60;;;;;;5047222;28;20051;-56
2023/04/22 07:20:53;;;;;;;13.75;7.97;;;11.80;91.60;;;;;;5047199;28;20031;-56
2023/04/22 07:23:19;;;;;;;18.90;7.97;;;11.90;91.90;;;;;;5047347;28;20033;-56
2023/04/22 07:25:45;;;;;;;19.80;7.50;;;11.80;91.50;;;;;;5047190;28;20030;-57
2023/04/22 07:28:11;;;;;;;11.93;7.80;;;11.80;91.50;;;;;;5047013;28;20354;-56
2023/04/22 07:30:37;;;;;;;12.57;6.70;;;11.80;91.50;;;;;;5047027;28;20040;-56
2023/04/22 07:33:02;;;;;;;17.38;7.95;;;11.80;91.50;;;;;;5046814;28;20025;-59
2023/04/22 07:35:29;;;;;;;32.63;8.52;;;11.90;91.50;;;;;;5046955;28;20033;-58
2023/04/22 07:37:55;;;;;;;20.95;8.52;;;11.80;91.50;;;;;;5046761;28;20034;-55
2023/04/22 07:40:22;;;;;;;24.20;7.80;;;11.80;91.50;;;;;;5044267;28;20052;-56
2023/04/22 07:42:47;;;;;;;19.38;8.48;;;11.80;91.50;;;;;;5041560;28;20060;-56
2023/04/22 07:45:14;;;;;;;25.65;8.20;;;11.90;91.50;;;;;;5046821;28;20045;-56
2023/04/22 07:47:39;;;;;;;21.33;7.78;;;11.90;91.50;;;;;;5046628;28;20417;-56
2023/04/22 07:50:05;;;;;;;15.15;8.43;;;11.90;91.50;;;;;;5046615;28;20025;-56
2023/04/22 07:52:31;;;;;;;15.30;7.80;;;11.90;91.50;;;;;;5046882;28;20081;-56
2023/04/22 07:54:57;;;;;;;18.02;8.05;;;11.90;91.60;;;;;;5046302;28;20386;-56
2023/04/22 07:57:22;;;;;;;13.98;8.18;;;12.00;91.60;;;;;;5045719;28;20037;-56
2023/04/22 07:59:48;;;;;;;15.93;8.75;;;11.90;91.60;;;;;;5045074;28;20104;-56
2023/04/22 08:02:14;;;;;;;16.90;7.72;;;11.90;91.70;;;;;;5049230;28;20025;-56
2023/04/22 08:04:40;;;;;;;15.48;7.75;;;11.80;92.00;;;;;;5048553;28;20030;-56
2023/04/22 08:07:05;;;;;;;21.48;9.10;;;11.90;91.80;;;;;;5047484;28;20079;-56
2023/04/22 08:09:31;;;;;;;20.75;8.20;;;12.00;91.90;;;;;;5052447;28;20026;-56
2023/04/22 08:11:57;;;;;;;16.83;8.65;;;12.00;92.00;;;;;;5051397;28;20033;-57
2023/04/22 08:14:22;;;;;;;18.80;9.20;;;11.90;92.10;;;;;;5051253;28;20148;-56
2023/04/22 08:16:50;;;;;;;22.42;10.30;;;12.00;92.00;;;;;;5056133;28;20049;-56
2023/04/22 08:19:15;;;;;;;27.80;10.75;;;12.10;92.10;;;;;;5062323;28;20048;-56
2023/04/22 08:21:43;;;;;;;37.10;13.02;;;12.10;92.60;;;;;;5062805;28;20029;-56
2023/04/22 08:24:09;;;;;;;48.90;13.98;;;12.10;93.10;;;;;;5036951;28;20022;-56
2023/04/22 08:26:35;;;;;;;60.53;14.10;;;12.10;93.50;;;;;;5043394;28;20037;-56
2023/04/22 08:29:00;;;;;;;66.28;14.65;;;12.20;93.60;;;;;;5034332;28;20033;-56
2023/04/22 08:31:26;;;;;;;48.75;13.85;;;12.20;93.20;;;;;;5044550;28;20033;-56
2023/04/22 08:33:52;;;;;;;80.97;16.50;;;12.30;93.30;;;;;;5031544;28;20033;-56
2023/04/22 08:36:18;;;;;;;101.60;20.20;;;12.20;93.40;;;;;;5032966;28;20041;-56
2023/04/22 08:38:44;;;;;;;68.78;18.08;;;12.40;93.50;;;;;;5054125;28;20097;-56
2023/04/22 08:41:10;;;;;;;69.20;17.77;;;12.40;93.80;;;;;;5026607;28;20038;-56
2023/04/22 08:43:35;;;;;;;106.03;21.52;;;12.30;93.80;;;;;;5035842;28;20507;-56
2023/04/22 08:46:01;;;;;;;111.35;22.88;;;12.40;94.10;;;;;;5040411;28;20037;-56
2023/04/22 08:48:27;;;;;;;118.97;24.30;;;12.50;94.30;;;;;;5045424;28;20060;-56
2023/04/22 08:50:52;;;;;;;160.85;28.25;;;12.60;95.10;;;;;;5045564;28;20037;-56
2023/04/22 08:53:19;;;;;;;134.07;23.83;;;12.60;95.00;;;;;;5034569;28;20048;-57
2023/04/22 08:55:45;;;;;;;112.90;23.70;;;12.70;95.00;;;;;;5030911;28;20052;-56
2023/04/22 08:58:11;;;;;;;134.95;25.15;;;12.60;94.90;;;;;;5041600;28;20486;-56
2023/04/22 09:00:37;;;;;;;132.27;27.85;;;12.90;95.10;;;;;;5045024;28;20041;-56
2023/04/22 09:03:04;;;;;;;127.68;23.70;;;12.70;95.20;;;;;;5044119;28;20030;-56
2023/04/22 09:05:32;;;;;;;137.73;23.73;;;12.80;95.20;;;;;;5039283;28;20029;-55
2023/04/22 09:07:58;;;;;;;144.90;24.52;;;12.80;95.30;;;;;;5043738;28;20108;-56
2023/04/22 09:10:24;;;;;;;144.32;26.05;;;12.90;95.30;;;;;;5036432;28;20029;-56
2023/04/22 09:12:50;;;;;;;150.10;26.70;;;13.10;95.30;;;;;;5041355;28;20061;-56
2023/04/22 09:15:16;;;;;;;243.15;33.28;;;12.90;95.10;;;;;;5036448;28;20450;-56
2023/04/22 09:17:42;;;;;;;218.25;31.83;;;12.90;95.10;;;;;;5041545;28;20033;-56
2023/04/22 09:20:08;;;;;;;179.68;29.70;;;13.00;94.80;;;;;;5039311;28;20454;-56
2023/04/22 09:22:43;;;;;;;219.98;30.92;;;13.00;94.80;;;;;;5055580;28;20021;-56
2023/04/22 09:25:16;;;;;;;241.98;33.33;;;13.10;94.80;;;;;;5042506;28;20017;-56
2023/04/22 09:27:42;;;;;;;255.70;33.75;;;13.20;94.90;;;;;;5042226;28;20029;-56
2023/04/22 09:30:08;;;;;;;237.85;35.08;;;13.10;94.80;;;;;;5033983;28;20052;-56
2023/04/22 09:32:34;;;;;;;257.95;36.38;;;13.20;94.70;;;;;;5041321;28;20041;-56
2023/04/22 09:34:59;;;;;;;229.95;33.53;;;13.30;94.70;;;;;;5040458;28;20105;-56
2023/04/22 09:37:25;;;;;;;245.75;35.15;;;13.50;94.60;;;;;;5037417;28;20030;-56
2023/04/22 09:39:53;;;;;;;264.25;37.47;;;13.30;94.40;;;;;;5034951;28;20053;-56
2023/04/22 09:42:18;;;;;;;236.38;36.50;;;13.40;94.50;;;;;;5033101;28;20050;-56
2023/04/22 09:44:48;;;;;;;266.70;37.65;;;13.40;94.60;;;;;;5033081;28;20101;-56
2023/04/22 09:47:14;;;;;;;251.35;35.08;;;13.50;94.70;;;;;;5033041;28;20094;-56
2023/04/22 09:49:39;;;;;;;213.75;31.52;;;13.50;94.70;;;;;;5037882;28;20044;-56
2023/04/22 09:52:05;;;;;;;220.52;32.83;;;13.60;94.70;;;;;;5037178;28;20030;-56
2023/04/22 09:54:31;;;;;;;223.95;29.42;;;13.70;94.50;;;;;;5044638;28;20041;-56
2023/04/22 09:56:57;;;;;;;205.88;29.95;;;13.70;94.30;;;;;;5028969;28;20030;-57
2023/04/22 09:59:27;;;;;;;215.30;31.17;;;13.80;94.30;;;;;;5027954;28;20072;-56
2023/04/22 10:01:56;;;;;;;212.32;31.90;;;13.80;94.20;;;;;;5041298;28;20048;-56
2023/04/22 10:04:24;;;;;;;210.35;32.33;;;13.90;94.10;;;;;;5035297;28;20442;-56
2023/04/22 10:06:51;;;;;;;204.65;29.92;;;13.90;94.00;;;;;;5044169;28;20053;-56
2023/04/22 10:09:17;;;;;;;190.57;28.88;;;14.00;94.00;;;;;;5039168;28;20038;-56
2023/04/22 10:11:43;;;;;;;214.70;30.33;;;14.00;93.80;;;;;;5033149;28;20116;-56
2023/04/22 10:14:10;;;;;;;273.92;35.08;;;14.10;93.70;;;;;;5038762;28;20143;-56
2023/04/22 10:16:36;;;;;;;243.05;34.10;;;14.10;93.70;;;;;;5032658;28;20056;-56
2023/04/22 10:19:03;;;;;;;263.73;35.47;;;14.20;93.70;;;;;;5033539;28;20037;-56
2023/04/22 10:21:28;;;;;;;236.07;35.33;;;14.30;93.60;;;;;;5028345;28;20033;-56
2023/04/22 10:23:54;;;;;;;201.48;29.73;;;14.30;93.70;;;;;;5037895;28;20034;-57
2023/04/22 10:26:42;;;;;;;183.13;30.38;;;14.40;93.60;;;;;;5038611;28;20064;-56
2023/04/22 10:29:12;;;;;;;190.77;28.98;;;14.40;93.40;;;;;;5033949;28;20026;-56
2023/04/22 10:31:37;;;;;;;219.25;28.75;;;14.40;93.00;;;;;;5037438;28;20024;-56
2023/04/22 10:34:11;;;;;;;222.50;30.50;;;14.50;92.70;;;;;;5039392;28;20076;-56
2023/04/22 10:36:53;;;;;;;238.23;30.90;;;14.50;92.80;;;;;;5037105;28;20115;-56
2023/04/22 10:39:20;;;;;;;215.60;29.40;;;14.60;93.00;;;;;;5047849;28;20034;-56
2023/04/22 10:42:02;;;;;;;183.55;28.35;;;14.60;93.00;;;;;;5043364;28;20029;-57
2023/04/22 10:44:29;;;;;;;148.65;23.85;;;14.70;92.80;;;;;;5041770;28;20030;-56
2023/04/22 10:46:58;;;;;;;178.57;26.20;;;14.80;92.50;;;;;;5045570;28;20030;-56
2023/04/22 10:49:25;;;;;;;133.02;22.55;;;14.80;92.50;;;;;;5026584;28;20057;-56
2023/04/22 10:51:57;;;;;;;166.80;26.95;;;14.80;92.30;;;;;;5026283;28;20091;-56
2023/04/22 10:54:25;;;;;;;159.50;24.73;;;14.90;92.30;;;;;;5027775;28;20045;-56
2023/04/22 10:57:03;;;;;;;143.55;21.98;;;14.90;92.30;;;;;;5046378;28;20028;-56
2023/04/22 10:59:41;;;;;;;146.00;22.23;;;15.00;92.20;;;;;;5047061;28;20052;-56
2023/04/22 11:02:07;;;;;;;144.90;21.95;;;15.10;92.10;;;;;;5046935;28;20022;-56
2023/04/22 11:04:33;;;;;;;143.52;21.73;;;15.10;92.20;;;;;;5045714;28;20033;-55
2023/04/22 11:07:19;;;;;;;135.30;20.65;;;15.20;91.90;;;;;;5046995;28;20029;-56
2023/04/22 11:09:49;;;;;;;139.85;20.83;;;15.20;91.70;;;;;;5046823;28;20080;-56
2023/04/22 11:15:13;;;;;;;119.13;19.60;;;15.40;91.30;;;;;;5066353;28;20366;-56
2023/04/22 11:17:41;;;;;;;128.52;18.85;;;15.40;91.20;;;;;;5027292;28;20034;-56
2023/04/22 11:20:07;;;;;;;96.28;15.30;;;15.50;91.10;;;;;;5026778;28;20061;-56
2023/04/22 11:22:36;;;;;;;102.78;16.00;;;15.60;90.90;;;;;;5026423;28;20103;-56
2023/04/22 11:25:03;;;;;;;121.03;18.63;;;15.60;90.10;;;;;;5028103;28;20022;-56
2023/04/22 11:27:29;;;;;;;132.77;17.92;;;15.70;90.10;;;;;;5026693;28;20044;-56
2023/04/22 11:30:12;;;;;;;118.05;15.75;;;15.70;90.00;;;;;;5026830;28;20050;-56
2023/04/22 11:32:40;;;;;;;110.28;14.13;;;15.80;89.50;;;;;;5027016;28;20045;-56
2023/04/22 11:35:07;;;;;;;68.85;12.65;;;15.90;89.00;;;;;;5041476;28;20030;-56
2023/04/22 11:37:40;;;;;;;75.57;12.23;;;16.00;88.60;;;;;;5024671;28;20026;-56
2023/04/22 11:40:09;;;;;;;80.13;11.70;;;16.10;88.10;;;;;;5024639;28;20065;-56
2023/04/22 11:42:38;;;;;;;77.32;11.82;;;16.20;87.90;;;;;;5024627;28;20057;-56
2023/04/22 11:45:04;;;;;;;53.78;9.88;;;16.30;87.50;;;;;;5024474;28;20033;-56
2023/04/22 11:47:30;;;;;;;56.10;10.55;;;16.30;87.10;;;;;;5034409;28;20084;-56
2023/04/22 11:49:57;;;;;;;70.03;10.48;;;16.40;87.00;;;;;;5044678;28;20030;-56
2023/04/22 11:52:23;;;;;;;49.28;9.43;;;16.40;86.60;;;;;;5046673;28;20060;-56
2023/04/22 11:54:49;;;;;;;57.33;9.85;;;16.50;86.30;;;;;;5046473;28;20033;-56
2023/04/22 11:57:16;;;;;;;64.50;10.02;;;16.60;86.30;;;;;;5045280;28;20029;-56
2023/04/22 11:59:42;;;;;;;62.28;9.20;;;16.70;85.80;;;;;;5046309;28;20104;-56
2023/04/22 12:02:08;;;;;;;83.20;9.35;;;16.80;85.00;;;;;;5046210;28;20036;-56
2023/04/22 12:04:40;;;;;;;70.93;9.70;;;16.90;85.20;;;;;;5042189;28;20105;-56
2023/04/22 12:07:06;;;;;;;44.83;8.35;;;17.00;84.60;;;;;;5045849;28;20083;-56
2023/04/22 12:09:35;;;;;;;68.75;10.15;;;17.10;84.00;;;;;;5044531;28;20553;-56
2023/04/22 12:12:05;;;;;;;52.22;9.48;;;17.10;84.20;;;;;;5044157;28;20040;-56
2023/04/22 12:14:33;;;;;;;35.80;8.13;;;17.20;84.20;;;;;;5043966;28;20030;-56
2023/04/22 12:17:04;;;;;;;63.97;8.30;;;17.20;84.20;;;;;;5043589;28;20055;-56
2023/04/22 12:19:30;;;;;;;53.70;8.48;;;17.20;83.90;;;;;;5043473;28;20030;-56
2023/04/22 12:21:56;;;;;;;48.63;7.55;;;17.30;84.00;;;;;;5042201;28;20090;-56
2023/04/22 12:24:27;;;;;;;43.72;7.40;;;17.30;83.90;;;;;;5043698;28;20113;-56
2023/04/22 12:26:53;;;;;;;42.95;8.05;;;17.30;83.80;;;;;;5043207;28;20028;-56
2023/04/22 12:29:32;;;;;;;46.92;8.35;;;17.40;83.70;;;;;;5041487;28;20060;-56